Time;durP1;ratioP1;P1;durP2;ratioP2;P2;SDS_P1;SDS_P2;PMS_P1;PMS_P2;Temp;Humidity;BMP_temperature;BMP_pressure;BME280_temperature;BME280_humidity;BME280_pressure;Samples;Min_cycle;Max_cycle;Signal;HPM_P1;HPM_P2
2024/03/16 00:01:35;;;;;;;15.38;13.50;;;10.20;99.90;;;;;;4979062;28;20051;-69
2024/03/16 00:04:03;;;;;;;19.60;13.57;;;10.20;99.90;;;;;;4974800;28;20050;-71
2024/03/16 00:06:30;;;;;;;14.40;13.10;;;10.30;99.90;;;;;;4959454;28;20111;-69
2024/03/16 00:08:57;;;;;;;16.98;15.25;;;10.40;99.90;;;;;;4982319;28;20141;-70
2024/03/16 00:11:27;;;;;;;16.33;13.18;;;10.40;99.90;;;;;;4976838;28;20143;-67
2024/03/16 00:13:54;;;;;;;16.63;13.68;;;10.40;99.90;;;;;;4982650;28;20308;-70
2024/03/16 00:16:21;;;;;;;16.50;14.10;;;10.40;99.90;;;;;;4968275;28;20049;-69
2024/03/16 00:18:48;;;;;;;15.70;13.80;;;10.30;99.90;;;;;;4990105;28;20049;-71
2024/03/16 00:21:15;;;;;;;19.02;13.70;;;10.30;99.90;;;;;;4967998;28;20085;-70
2024/03/16 00:23:43;;;;;;;14.43;13.00;;;10.20;99.90;;;;;;4969893;28;20092;-70
2024/03/16 00:26:11;;;;;;;16.42;12.98;;;10.20;99.90;;;;;;4971416;28;20070;-69
2024/03/16 00:28:38;;;;;;;19.67;12.80;;;10.20;99.90;;;;;;4964101;28;20054;-69
2024/03/16 00:31:05;;;;;;;19.05;13.20;;;10.20;99.90;;;;;;4962889;28;20071;-70
2024/03/16 00:33:33;;;;;;;15.02;13.15;;;10.10;99.90;;;;;;4970174;28;20054;-71
2024/03/16 00:36:01;;;;;;;20.63;12.90;;;10.10;99.90;;;;;;4968370;28;20529;-69
2024/03/16 00:38:28;;;;;;;15.15;13.07;;;10.10;99.90;;;;;;4975560;28;20059;-69
2024/03/16 00:40:56;;;;;;;13.85;12.50;;;10.10;99.90;;;;;;4982571;28;20057;-71
2024/03/16 00:43:23;;;;;;;14.32;12.98;;;10.10;99.90;;;;;;4965549;28;20050;-69
2024/03/16 00:45:50;;;;;;;14.07;12.38;;;10.10;99.90;;;;;;4958604;28;21190;-69
2024/03/16 00:48:17;;;;;;;16.13;12.25;;;10.00;99.90;;;;;;4957955;28;20166;-69
2024/03/16 00:50:44;;;;;;;15.00;12.23;;;10.10;99.90;;;;;;4954799;28;20550;-70
2024/03/16 00:53:11;;;;;;;14.68;12.93;;;10.10;99.90;;;;;;4962060;28;20115;-70
2024/03/16 00:55:38;;;;;;;16.08;13.25;;;10.00;99.90;;;;;;4968842;28;20140;-70
2024/03/16 00:58:05;;;;;;;19.52;12.95;;;10.00;99.90;;;;;;4976029;28;20068;-70
2024/03/16 01:00:33;;;;;;;16.15;13.15;;;9.90;99.90;;;;;;4957174;28;20480;-69
2024/03/16 01:03:01;;;;;;;17.65;13.35;;;10.00;99.90;;;;;;4978024;28;20312;-71
2024/03/16 01:05:28;;;;;;;14.48;13.00;;;9.90;99.90;;;;;;4975465;28;20058;-69
2024/03/16 01:07:56;;;;;;;16.10;13.05;;;9.90;99.90;;;;;;4973663;28;20050;-71
2024/03/16 01:10:23;;;;;;;17.25;13.02;;;9.90;99.90;;;;;;4973198;28;20046;-70
2024/03/16 01:12:50;;;;;;;24.40;12.57;;;9.90;99.90;;;;;;4965440;28;20096;-71
2024/03/16 01:15:20;;;;;;;13.57;11.68;;;9.90;99.90;;;;;;4969998;28;20157;-70
2024/03/16 01:17:48;;;;;;;13.32;11.93;;;9.90;99.90;;;;;;4975028;28;20046;-69
2024/03/16 01:20:15;;;;;;;16.25;11.70;;;9.80;99.90;;;;;;4970033;28;20030;-70
2024/03/16 01:22:42;;;;;;;15.60;12.82;;;9.90;99.90;;;;;;4970822;28;20060;-70
2024/03/16 01:25:09;;;;;;;16.02;12.43;;;9.90;99.90;;;;;;4979206;28;20054;-70
2024/03/16 01:27:37;;;;;;;17.92;12.68;;;10.00;99.90;;;;;;4974662;28;20174;-70
2024/03/16 01:30:05;;;;;;;18.42;12.57;;;10.00;99.90;;;;;;4954931;28;20105;-70
2024/03/16 01:32:32;;;;;;;14.40;12.95;;;10.10;99.90;;;;;;4966518;28;20136;-70
2024/03/16 01:34:59;;;;;;;14.38;13.13;;;10.10;99.90;;;;;;4983221;28;20752;-70
2024/03/16 01:37:26;;;;;;;14.55;12.90;;;10.20;99.90;;;;;;4969903;28;20081;-70
2024/03/16 01:39:55;;;;;;;15.02;13.52;;;10.20;99.90;;;;;;4977079;28;20050;-69
2024/03/16 01:42:22;;;;;;;16.08;13.10;;;10.20;99.90;;;;;;4959602;28;20046;-69
2024/03/16 01:45:10;;;;;;;14.23;12.48;;;10.20;99.90;;;;;;4971344;28;20626;-68
2024/03/16 01:47:38;;;;;;;14.25;13.00;;;10.20;99.90;;;;;;4970194;28;20142;-69
2024/03/16 01:50:05;;;;;;;14.43;13.05;;;10.20;99.90;;;;;;4972805;28;20058;-71
2024/03/16 01:52:32;;;;;;;14.02;12.75;;;10.30;99.90;;;;;;4981644;28;20052;-69
2024/03/16 01:54:59;;;;;;;14.63;12.32;;;10.30;99.90;;;;;;4970330;28;20042;-71
2024/03/16 01:57:26;;;;;;;17.85;12.52;;;10.30;99.90;;;;;;4970504;28;20073;-70
2024/03/16 01:59:53;;;;;;;14.18;11.63;;;10.30;99.90;;;;;;4952928;28;20042;-70
2024/03/16 02:02:41;;;;;;;12.65;11.65;;;10.30;99.90;;;;;;4975192;28;20656;-70
2024/03/16 02:05:08;;;;;;;12.98;11.75;;;10.20;99.90;;;;;;4966718;28;20046;-70
2024/03/16 02:07:37;;;;;;;13.70;12.30;;;10.20;99.90;;;;;;4971868;28;20058;-70
2024/03/16 02:10:08;;;;;;;12.90;11.55;;;10.20;99.90;;;;;;4971305;28;20082;-69
2024/03/16 02:12:36;;;;;;;14.18;11.35;;;10.20;99.90;;;;;;4953641;28;20043;-69
2024/03/16 02:15:05;;;;;;;13.38;11.88;;;10.20;99.90;;;;;;4969771;28;20045;-68
2024/03/16 02:17:32;;;;;;;13.68;11.38;;;10.30;99.90;;;;;;4957040;28;20551;-67
2024/03/16 02:19:59;;;;;;;14.20;12.57;;;10.20;99.90;;;;;;4998131;28;20046;-70
2024/03/16 02:22:28;;;;;;;11.90;10.90;;;10.20;99.90;;;;;;4973042;28;20054;-69
2024/03/16 02:24:56;;;;;;;12.88;11.68;;;10.20;99.90;;;;;;4967730;28;20128;-70
2024/03/16 02:27:24;;;;;;;12.15;11.32;;;10.20;99.90;;;;;;4967448;28;20128;-69
2024/03/16 02:29:52;;;;;;;12.55;11.65;;;10.20;99.90;;;;;;4971570;28;20057;-70
2024/03/16 02:32:19;;;;;;;12.38;11.23;;;10.20;99.90;;;;;;4970810;28;20128;-70
2024/03/16 02:34:47;;;;;;;12.75;11.75;;;10.20;99.90;;;;;;4966163;28;20042;-71
2024/03/16 02:37:14;;;;;;;12.30;11.10;;;10.20;99.90;;;;;;4970960;28;20042;-70
2024/03/16 02:39:41;;;;;;;11.88;10.98;;;10.20;99.90;;;;;;4967350;28;20057;-70
2024/03/16 02:42:08;;;;;;;12.23;11.52;;;10.20;99.90;;;;;;4973372;28;20104;-70
2024/03/16 02:44:35;;;;;;;11.50;10.75;;;10.20;99.90;;;;;;4971123;28;20054;-70
2024/03/16 02:47:04;;;;;;;10.88;10.05;;;10.20;99.90;;;;;;4968435;28;20054;-69
2024/03/16 02:49:31;;;;;;;11.13;10.20;;;10.20;99.90;;;;;;4954737;28;20062;-69
2024/03/16 02:51:59;;;;;;;11.70;10.75;;;10.20;99.90;;;;;;4974623;28;20700;-69
2024/03/16 02:54:25;;;;;;;11.40;10.70;;;10.30;99.90;;;;;;4963566;28;20136;-69
2024/03/16 02:56:54;;;;;;;11.30;10.60;;;10.30;99.90;;;;;;4971048;28;20045;-70
2024/03/16 02:59:21;;;;;;;11.90;11.10;;;10.30;99.90;;;;;;4972751;28;20565;-69
2024/03/16 03:01:48;;;;;;;12.23;11.10;;;10.20;99.90;;;;;;4970546;28;20057;-70
2024/03/16 03:04:16;;;;;;;12.48;11.23;;;10.20;99.90;;;;;;4967089;28;20592;-69
2024/03/16 03:06:42;;;;;;;12.07;10.85;;;10.20;99.90;;;;;;4967959;28;20046;-70
2024/03/16 03:09:10;;;;;;;17.20;12.25;;;10.20;99.90;;;;;;4964923;28;20526;-69
2024/03/16 03:11:37;;;;;;;12.38;11.38;;;10.20;99.90;;;;;;4968596;28;20046;-70
2024/03/16 03:14:08;;;;;;;11.52;10.75;;;10.10;99.90;;;;;;4968365;28;20038;-70
2024/03/16 03:16:35;;;;;;;12.23;11.20;;;10.10;99.90;;;;;;4972352;28;20578;-70
2024/03/16 03:19:03;;;;;;;12.43;11.50;;;10.10;99.90;;;;;;4973757;28;20033;-70
2024/03/16 03:21:30;;;;;;;12.50;11.40;;;10.10;99.90;;;;;;4960436;28;20084;-69
2024/03/16 03:23:59;;;;;;;14.13;11.68;;;10.10;99.90;;;;;;4945710;28;20054;-70
2024/03/16 03:26:29;;;;;;;12.27;11.10;;;10.10;99.90;;;;;;4951918;28;20043;-68
2024/03/16 03:28:57;;;;;;;13.70;11.93;;;10.10;99.90;;;;;;4957655;28;20063;-70
2024/03/16 03:31:25;;;;;;;13.38;12.43;;;10.10;99.90;;;;;;4956591;28;20198;-70
2024/03/16 03:33:52;;;;;;;13.63;12.35;;;10.00;99.90;;;;;;4969642;28;20081;-69
2024/03/16 03:36:19;;;;;;;13.82;12.57;;;10.10;99.90;;;;;;4962606;28;20039;-70
2024/03/16 03:38:46;;;;;;;14.50;13.07;;;10.10;99.90;;;;;;4963603;28;20050;-70
2024/03/16 03:41:13;;;;;;;13.25;12.20;;;10.10;99.90;;;;;;4958518;28;20672;-69
2024/03/16 03:43:46;;;;;;;13.32;12.38;;;10.00;99.90;;;;;;4927703;28;20061;-69
2024/03/16 03:47:00;;;;;;;15.40;12.02;;;10.00;99.90;;;;;;4944765;28;20122;-70
2024/03/16 03:49:11;;;;;;;14.38;12.90;;;10.00;99.90;;;;;;4948545;28;20133;-69
2024/03/16 03:51:38;;;;;;;14.02;12.63;;;10.00;99.90;;;;;;4958251;28;20178;-69
2024/03/16 03:54:08;;;;;;;14.27;12.90;;;10.00;99.90;;;;;;4955315;28;20419;-69
2024/03/16 03:56:35;;;;;;;13.18;11.82;;;10.10;99.90;;;;;;4949315;28;20692;-70
2024/03/16 03:59:02;;;;;;;13.18;11.93;;;10.00;99.90;;;;;;4949916;28;20611;-70
2024/03/16 04:01:29;;;;;;;13.95;12.00;;;10.00;99.90;;;;;;4950078;28;20054;-68
2024/03/16 04:03:58;;;;;;;13.10;11.35;;;10.00;99.90;;;;;;4974712;28;20047;-69
2024/03/16 04:06:28;;;;;;;18.33;13.30;;;10.00;99.90;;;;;;4936726;28;20043;-69
2024/03/16 04:08:55;;;;;;;13.95;12.00;;;10.00;99.90;;;;;;4943925;28;20127;-71
2024/03/16 04:11:22;;;;;;;20.88;11.70;;;10.00;99.90;;;;;;4948564;28;20046;-69
2024/03/16 04:13:49;;;;;;;13.95;12.48;;;9.90;99.90;;;;;;4949062;28;20125;-68
2024/03/16 04:16:16;;;;;;;13.93;12.20;;;9.90;99.90;;;;;;4949816;28;20042;-69
2024/03/16 04:18:43;;;;;;;13.23;11.95;;;9.90;99.90;;;;;;4930872;28;20047;-69
2024/03/16 04:21:10;;;;;;;18.70;12.98;;;9.90;99.90;;;;;;4953207;28;20074;-69
2024/03/16 04:23:38;;;;;;;17.70;11.95;;;9.90;99.90;;;;;;4932839;28;20137;-70
2024/03/16 04:26:04;;;;;;;17.02;12.48;;;9.90;99.90;;;;;;4940369;28;20046;-69
2024/03/16 04:28:32;;;;;;;14.38;12.60;;;9.90;99.90;;;;;;4949354;28;20116;-68
2024/03/16 04:30:59;;;;;;;13.15;11.88;;;9.90;99.90;;;;;;4949774;28;20154;-71
2024/03/16 04:33:27;;;;;;;13.05;11.73;;;9.90;99.90;;;;;;4951792;28;20038;-69
2024/03/16 04:35:54;;;;;;;19.83;12.90;;;9.90;99.90;;;;;;4940462;28;20508;-69
2024/03/16 04:38:22;;;;;;;14.27;11.88;;;9.90;99.90;;;;;;4947098;28;20049;-68
2024/03/16 04:40:49;;;;;;;16.58;11.77;;;9.90;99.90;;;;;;4950376;28;20056;-70
2024/03/16 04:43:16;;;;;;;18.52;12.00;;;9.90;99.90;;;;;;4947061;28;20058;-69
2024/03/16 04:45:49;;;;;;;12.63;10.65;;;9.90;99.90;;;;;;4946269;28;20369;-70
2024/03/16 04:48:16;;;;;;;17.05;12.05;;;9.80;99.90;;;;;;4948523;28;20051;-70
2024/03/16 04:50:43;;;;;;;10.75;9.65;;;9.80;99.90;;;;;;4944115;28;20039;-69
2024/03/16 04:53:14;;;;;;;16.42;10.68;;;9.80;99.90;;;;;;4966584;28;20579;-68
2024/03/16 04:55:41;;;;;;;15.50;10.20;;;9.70;99.90;;;;;;4946771;28;20149;-70
2024/03/16 04:58:08;;;;;;;17.23;10.32;;;9.70;99.90;;;;;;4947226;28;20528;-70
2024/03/16 05:00:35;;;;;;;17.40;8.90;;;9.60;99.90;;;;;;4942169;28;20047;-68
2024/03/16 05:03:04;;;;;;;18.38;8.88;;;9.60;99.90;;;;;;4978508;28;20051;-70
2024/03/16 05:05:31;;;;;;;19.52;9.35;;;9.60;99.90;;;;;;4944448;28;20124;-71
2024/03/16 05:07:58;;;;;;;20.65;8.88;;;9.60;99.90;;;;;;4945892;28;20046;-69
2024/03/16 05:10:26;;;;;;;15.07;8.15;;;9.60;99.90;;;;;;4945499;28;20145;-70
2024/03/16 05:12:54;;;;;;;17.48;8.63;;;9.50;99.90;;;;;;4948919;28;20076;-69
2024/03/16 05:15:21;;;;;;;18.83;9.00;;;9.50;99.90;;;;;;4949615;28;20059;-69
2024/03/16 05:17:48;;;;;;;20.25;8.35;;;9.40;99.90;;;;;;4945633;28;20051;-73
2024/03/16 05:20:15;;;;;;;21.60;9.18;;;9.30;99.90;;;;;;4960866;28;20050;-71
2024/03/16 05:22:42;;;;;;;24.08;11.55;;;9.30;99.90;;;;;;4955939;28;20141;-74
2024/03/16 05:25:10;;;;;;;25.40;12.38;;;9.20;99.90;;;;;;4953440;28;20047;-73
2024/03/16 05:27:38;;;;;;;30.00;12.32;;;9.20;99.90;;;;;;4947953;28;20055;-73
2024/03/16 05:30:07;;;;;;;23.73;11.60;;;9.20;99.90;;;;;;4958249;28;20160;-75
2024/03/16 05:32:35;;;;;;;26.73;12.82;;;9.10;99.90;;;;;;4948977;28;20057;-74
2024/03/16 05:35:04;;;;;;;23.42;11.70;;;9.10;99.90;;;;;;4942797;28;20087;-74
2024/03/16 05:37:31;;;;;;;23.75;12.23;;;9.10;99.90;;;;;;4947758;28;20058;-74
2024/03/16 05:39:58;;;;;;;27.60;12.82;;;9.10;99.90;;;;;;4932226;28;20166;-72
2024/03/16 05:42:27;;;;;;;24.58;12.57;;;9.10;99.90;;;;;;4930421;28;20067;-73
2024/03/16 05:44:55;;;;;;;31.20;13.75;;;9.00;99.90;;;;;;4977756;28;20114;-73
2024/03/16 05:47:22;;;;;;;30.73;14.25;;;9.00;99.90;;;;;;4951155;28;20047;-74
2024/03/16 05:49:50;;;;;;;29.30;14.10;;;9.00;99.90;;;;;;4951924;28;20054;-73
2024/03/16 05:52:16;;;;;;;32.38;14.77;;;9.10;99.90;;;;;;4950055;28;20046;-74
2024/03/16 05:54:44;;;;;;;26.13;13.98;;;9.00;99.90;;;;;;4948718;28;20054;-71
2024/03/16 05:57:11;;;;;;;28.80;14.93;;;9.00;99.90;;;;;;4948651;28;20158;-72
2024/03/16 05:59:38;;;;;;;33.33;15.98;;;9.00;99.90;;;;;;4952935;28;20212;-73
2024/03/16 06:02:05;;;;;;;26.92;14.82;;;9.10;99.90;;;;;;4946695;28;20050;-73
2024/03/16 06:04:32;;;;;;;33.88;13.50;;;9.00;99.90;;;;;;4946832;28;20716;-73
2024/03/16 06:06:59;;;;;;;31.00;14.63;;;9.10;99.90;;;;;;4951010;28;20077;-72
2024/03/16 06:09:26;;;;;;;24.73;14.20;;;9.10;99.90;;;;;;4952125;28;20047;-73
2024/03/16 06:11:54;;;;;;;27.80;13.65;;;9.10;99.90;;;;;;4947150;28;20071;-73
2024/03/16 06:14:21;;;;;;;30.48;14.73;;;9.10;99.90;;;;;;4949406;28;20101;-73
2024/03/16 06:16:48;;;;;;;34.70;15.80;;;9.10;99.90;;;;;;4949871;28;20077;-73
2024/03/16 06:19:15;;;;;;;28.80;14.48;;;9.10;99.90;;;;;;4953207;28;20050;-72
2024/03/16 06:21:45;;;;;;;29.90;15.20;;;9.20;99.90;;;;;;4947000;28;20074;-71
2024/03/16 06:24:12;;;;;;;32.20;16.42;;;9.10;99.90;;;;;;4932888;28;20055;-74
2024/03/16 06:26:41;;;;;;;37.70;16.52;;;9.20;99.90;;;;;;4949341;28;20053;-73
2024/03/16 06:29:12;;;;;;;28.63;14.60;;;9.10;99.90;;;;;;4960152;28;20614;-74
2024/03/16 06:31:41;;;;;;;39.45;17.90;;;9.10;99.90;;;;;;4953038;28;21125;-73
2024/03/16 06:34:08;;;;;;;34.80;17.08;;;9.20;99.90;;;;;;4956809;28;20831;-74
2024/03/16 06:36:36;;;;;;;37.38;18.15;;;9.20;99.90;;;;;;4945483;28;20141;-72
2024/03/16 06:39:10;;;;;;;33.85;17.38;;;9.20;99.90;;;;;;4949331;28;20163;-74
2024/03/16 06:41:38;;;;;;;;;;;9.10;99.90;;;;;;4950632;28;20186;-73
2024/03/16 06:44:05;;;;;;;32.95;17.10;;;9.10;99.90;;;;;;4944830;28;20881;-73
2024/03/16 06:46:32;;;;;;;34.50;17.63;;;9.10;99.90;;;;;;4961330;28;20055;-72
2024/03/16 06:49:05;;;;;;;41.22;19.73;;;9.10;99.90;;;;;;4952348;28;20177;-72
2024/03/16 06:51:33;;;;;;;37.30;18.05;;;9.20;99.90;;;;;;4947219;28;20055;-73
2024/03/16 06:54:01;;;;;;;40.13;18.80;;;9.20;99.90;;;;;;4942342;28;20047;-72
2024/03/16 06:56:29;;;;;;;42.72;19.88;;;9.20;99.90;;;;;;4935526;28;20057;-72
2024/03/16 06:58:56;;;;;;;40.35;20.15;;;9.20;99.90;;;;;;4947260;28;20043;-74
2024/03/16 07:01:24;;;;;;;38.30;19.95;;;9.20;99.90;;;;;;4952524;28;20054;-73
2024/03/16 07:03:51;;;;;;;41.50;17.92;;;9.20;99.90;;;;;;4940750;28;20058;-73
2024/03/16 07:06:19;;;;;;;39.13;17.90;;;9.20;99.90;;;;;;4949423;28;20057;-73
2024/03/16 07:08:46;;;;;;;41.72;20.35;;;9.30;99.90;;;;;;4939178;28;20055;-73
2024/03/16 07:11:13;;;;;;;47.40;20.85;;;9.30;99.90;;;;;;4949052;28;20056;-72
2024/03/16 07:13:40;;;;;;;41.17;16.83;;;9.30;99.90;;;;;;4947125;28;20066;-73
2024/03/16 07:16:13;;;;;;;38.90;18.52;;;9.30;99.90;;;;;;4949622;28;20031;-70
2024/03/16 07:18:44;;;;;;;38.38;18.73;;;9.40;99.90;;;;;;4945108;28;20054;-73
2024/03/16 07:21:11;;;;;;;43.38;18.58;;;9.40;99.90;;;;;;4942899;28;20825;-72
2024/03/16 07:23:39;;;;;;;45.63;19.30;;;9.40;99.90;;;;;;4943588;28;20126;-74
2024/03/16 07:26:07;;;;;;;41.97;19.85;;;9.40;99.90;;;;;;4938671;28;20580;-73
2024/03/16 07:28:34;;;;;;;47.50;21.75;;;9.40;99.90;;;;;;4959684;28;20106;-72
2024/03/16 07:31:03;;;;;;;49.40;22.15;;;9.50;99.90;;;;;;4944323;28;20054;-73
2024/03/16 07:33:31;;;;;;;51.17;21.27;;;9.50;99.90;;;;;;4934790;28;20046;-73
2024/03/16 07:35:58;;;;;;;45.90;21.50;;;9.60;99.90;;;;;;4959181;28;20050;-72
2024/03/16 07:38:25;;;;;;;43.92;20.77;;;9.60;99.90;;;;;;4951485;28;20161;-72
2024/03/16 07:40:52;;;;;;;35.50;18.80;;;9.70;99.90;;;;;;4949416;28;20045;-70
2024/03/16 07:43:20;;;;;;;36.30;19.88;;;9.70;99.90;;;;;;4932594;28;20615;-73
2024/03/16 07:45:51;;;;;;;24.15;11.15;;;9.70;99.90;;;;;;4947425;28;20050;-74
2024/03/16 07:48:19;;;;;;;18.95;9.55;;;9.70;99.90;;;;;;4936951;28;20054;-73
2024/03/16 07:50:46;;;;;;;24.00;10.38;;;9.40;99.90;;;;;;4948647;28;20059;-74
2024/03/16 07:53:13;;;;;;;19.92;10.48;;;9.30;99.90;;;;;;4925124;28;21235;-71
2024/03/16 07:55:40;;;;;;;18.02;10.13;;;9.20;99.90;;;;;;4929722;28;20050;-72
2024/03/16 07:58:07;;;;;;;18.10;9.80;;;9.10;99.90;;;;;;4933447;28;20050;-72
2024/03/16 08:00:35;;;;;;;18.48;10.32;;;9.10;99.90;;;;;;4938696;28;20625;-71
2024/03/16 08:03:03;;;;;;;16.17;7.78;;;9.00;99.90;;;;;;4948820;28;20141;-72
2024/03/16 08:05:32;;;;;;;11.73;6.18;;;8.90;99.90;;;;;;4947761;28;20052;-71
2024/03/16 08:07:59;;;;;;;9.55;5.55;;;8.70;99.90;;;;;;4968248;28;20045;-72
2024/03/16 08:10:28;;;;;;;9.50;5.95;;;8.70;99.90;;;;;;4983848;28;20161;-72
2024/03/16 08:12:55;;;;;;;8.45;6.05;;;8.60;99.90;;;;;;4967023;28;20040;-70
2024/03/16 08:15:22;;;;;;;9.63;6.07;;;8.60;99.90;;;;;;4965419;28;20093;-72
2024/03/16 08:17:51;;;;;;;8.95;5.95;;;8.60;99.90;;;;;;4967039;28;20042;-72
2024/03/16 08:20:19;;;;;;;8.02;4.40;;;8.50;99.90;;;;;;4967336;28;20082;-71
2024/03/16 08:22:48;;;;;;;5.85;4.60;;;8.40;99.90;;;;;;4973485;28;20743;-71
2024/03/16 08:25:15;;;;;;;8.48;5.55;;;8.30;99.90;;;;;;4962057;28;20382;-70
2024/03/16 08:27:42;;;;;;;7.85;5.20;;;8.30;99.90;;;;;;4954247;28;20058;-71
2024/03/16 08:30:09;;;;;;;4.82;4.28;;;8.10;99.90;;;;;;4962464;28;20046;-72
2024/03/16 08:32:36;;;;;;;8.30;5.25;;;7.90;99.90;;;;;;4951581;28;20719;-71
2024/03/16 08:35:05;;;;;;;7.03;4.75;;;8.00;99.90;;;;;;4950244;28;20134;-72
2024/03/16 08:37:32;;;;;;;6.55;5.03;;;8.10;99.90;;;;;;4992277;28;20073;-71
2024/03/16 08:39:59;;;;;;;9.23;5.78;;;8.00;99.90;;;;;;4965195;28;20040;-71
2024/03/16 08:42:27;;;;;;;5.30;4.68;;;8.00;99.90;;;;;;4972603;28;20042;-69
2024/03/16 08:44:54;;;;;;;10.98;5.35;;;8.00;99.90;;;;;;4966134;28;20061;-72
2024/03/16 08:47:21;;;;;;;9.82;5.97;;;8.10;99.90;;;;;;4968290;28;20133;-70
2024/03/16 08:49:49;;;;;;;5.30;4.65;;;8.10;99.90;;;;;;4969412;28;20424;-69
2024/03/16 08:52:16;;;;;;;6.75;5.18;;;8.10;99.90;;;;;;4966978;28;20555;-71
2024/03/16 08:54:43;;;;;;;8.13;5.68;;;8.10;99.90;;;;;;4950420;28;20046;-71
2024/03/16 08:57:10;;;;;;;6.05;5.30;;;8.00;99.90;;;;;;4961319;28;20050;-72
2024/03/16 08:59:38;;;;;;;8.38;5.90;;;7.90;99.90;;;;;;4963443;28;20145;-72
2024/03/16 09:02:05;;;;;;;8.95;5.40;;;7.80;99.90;;;;;;4955456;28;20530;-71
2024/03/16 09:04:32;;;;;;;8.50;5.97;;;7.80;99.90;;;;;;4943724;28;20055;-70
2024/03/16 09:06:59;;;;;;;10.68;6.50;;;7.90;99.90;;;;;;4949196;28;20057;-70
2024/03/16 09:09:27;;;;;;;7.22;5.18;;;8.10;99.90;;;;;;4966634;28;20049;-73
2024/03/16 09:11:54;;;;;;;11.75;6.60;;;8.20;99.90;;;;;;4962886;28;20169;-70
2024/03/16 09:14:21;;;;;;;8.70;6.75;;;8.20;99.90;;;;;;4962565;28;20109;-72
2024/03/16 09:16:48;;;;;;;12.85;7.10;;;8.20;99.90;;;;;;4968163;28;20164;-71
2024/03/16 09:19:15;;;;;;;14.02;7.63;;;8.20;99.90;;;;;;4963961;28;20042;-72
2024/03/16 09:21:43;;;;;;;13.57;5.95;;;8.20;99.90;;;;;;4964556;28;20069;-70
2024/03/16 09:24:10;;;;;;;9.25;5.25;;;8.20;99.90;;;;;;4961449;28;20058;-72
2024/03/16 09:26:37;;;;;;;10.70;5.70;;;8.20;99.90;;;;;;4959455;28;20046;-72
2024/03/16 09:29:04;;;;;;;6.43;4.65;;;8.20;99.90;;;;;;4962415;28;20132;-71
2024/03/16 09:31:31;;;;;;;4.20;3.67;;;8.10;99.90;;;;;;4970969;28;20046;-72
2024/03/16 09:34:01;;;;;;;6.10;3.28;;;7.90;99.90;;;;;;4970865;28;20128;-72
2024/03/16 09:36:28;;;;;;;9.30;4.57;;;7.70;99.90;;;;;;4980177;28;20316;-72
2024/03/16 09:38:56;;;;;;;4.78;4.30;;;7.60;99.90;;;;;;4982582;28;20050;-70
2024/03/16 09:41:23;;;;;;;7.82;4.43;;;7.60;99.90;;;;;;4976190;28;21294;-71
2024/03/16 09:43:52;;;;;;;7.50;5.25;;;7.60;99.90;;;;;;4970519;28;20695;-73
2024/03/16 09:46:20;;;;;;;7.47;4.50;;;7.60;99.90;;;;;;4974134;28;20049;-73
2024/03/16 09:48:46;;;;;;;12.38;5.03;;;7.70;99.90;;;;;;4974433;28;20073;-72
2024/03/16 09:51:15;;;;;;;8.88;5.13;;;7.70;99.90;;;;;;4955369;28;20054;-71
2024/03/16 09:53:42;;;;;;;10.52;5.05;;;7.80;99.90;;;;;;4946264;28;20515;-72
2024/03/16 09:56:11;;;;;;;8.25;5.65;;;7.80;99.90;;;;;;4959502;28;20064;-70
2024/03/16 09:58:38;;;;;;;12.65;6.07;;;7.90;99.90;;;;;;4945921;28;20046;-71
2024/03/16 10:01:06;;;;;;;9.85;6.00;;;8.10;99.90;;;;;;4938901;28;20561;-72
2024/03/16 10:03:33;;;;;;;12.38;7.68;;;8.20;99.90;;;;;;4975500;28;20050;-70
2024/03/16 10:06:04;;;;;;;11.65;6.30;;;8.10;99.90;;;;;;4949738;28;20573;-73
2024/03/16 10:08:32;;;;;;;13.95;7.60;;;8.20;99.90;;;;;;4959767;28;20060;-73
2024/03/16 10:11:12;;;;;;;7.38;5.93;;;8.10;99.90;;;;;;4966395;28;20049;-72
2024/03/16 10:13:59;;;;;;;10.18;6.88;;;8.00;99.90;;;;;;4954745;28;20754;-70
2024/03/16 10:16:25;;;;;;;11.82;6.22;;;7.90;99.90;;;;;;4952896;28;21423;-73
2024/03/16 10:18:54;;;;;;;6.70;3.70;;;7.80;99.90;;;;;;4966737;28;20061;-73
2024/03/16 10:21:21;;;;;;;7.57;2.97;;;7.60;99.90;;;;;;4942547;28;20108;-72
2024/03/16 10:23:48;;;;;;;6.50;2.75;;;7.30;99.90;;;;;;4949364;28;20046;-72
2024/03/16 10:26:14;;;;;;;3.75;2.72;;;7.00;99.90;;;;;;4956577;28;20046;-71
2024/03/16 10:28:42;;;;;;;4.95;2.88;;;7.10;99.90;;;;;;4946934;28;20056;-72
2024/03/16 10:31:11;;;;;;;9.88;3.05;;;7.20;99.90;;;;;;4961611;28;20117;-69
2024/03/16 10:33:38;;;;;;;5.85;4.30;;;7.30;99.90;;;;;;4952316;28;20033;-72
2024/03/16 10:36:14;;;;;;;5.55;3.47;;;7.50;99.90;;;;;;4947623;28;20049;-71
2024/03/16 10:38:42;;;;;;;9.45;3.83;;;7.70;99.90;;;;;;4954319;28;20046;-72
2024/03/16 10:41:11;;;;;;;5.85;4.03;;;7.70;99.90;;;;;;4964208;28;20081;-72
2024/03/16 10:43:38;;;;;;;4.00;3.25;;;7.70;99.90;;;;;;4964509;28;20135;-72
2024/03/16 10:46:10;;;;;;;5.80;3.78;;;7.60;99.90;;;;;;4968109;28;20053;-72
2024/03/16 10:48:36;;;;;;;6.65;3.70;;;7.60;99.90;;;;;;4941593;28;20050;-71
2024/03/16 10:51:08;;;;;;;8.70;4.97;;;7.60;99.90;;;;;;4958523;28;20054;-72
2024/03/16 10:53:36;;;;;;;7.55;4.55;;;7.70;99.90;;;;;;4980463;28;20065;-70
2024/03/16 10:56:04;;;;;;;6.10;5.28;;;7.70;99.90;;;;;;4954014;28;20043;-70
2024/03/16 10:58:30;;;;;;;9.90;4.68;;;7.90;99.90;;;;;;4945489;28;20054;-71
2024/03/16 11:01:03;;;;;;;11.82;5.40;;;8.10;99.90;;;;;;4934086;28;20576;-71
2024/03/16 11:03:32;;;;;;;10.25;7.30;;;8.00;99.90;;;;;;4953142;28;20046;-72
2024/03/16 11:06:09;;;;;;;13.65;8.48;;;7.80;99.90;;;;;;4942704;28;20043;-72
2024/03/16 11:08:42;;;;;;;9.13;7.65;;;7.60;99.90;;;;;;4953283;28;20053;-69
2024/03/16 11:11:10;;;;;;;13.68;7.50;;;7.60;99.90;;;;;;4962580;28;20054;-69
2024/03/16 11:13:36;;;;;;;10.95;9.07;;;7.60;99.90;;;;;;4943170;28;20157;-68
2024/03/16 11:16:28;;;;;;;17.55;9.75;;;7.60;99.90;;;;;;4946453;28;20039;-71
2024/03/16 11:18:55;;;;;;;17.92;10.52;;;7.60;99.90;;;;;;4950193;28;20567;-71
2024/03/16 11:21:22;;;;;;;13.02;10.63;;;7.70;99.90;;;;;;4945478;28;20054;-70
2024/03/16 11:23:49;;;;;;;15.82;14.23;;;7.80;99.90;;;;;;4931346;28;20050;-71
2024/03/16 11:26:27;;;;;;;16.17;14.65;;;7.70;99.90;;;;;;4947658;28;20057;-69
2024/03/16 11:29:04;;;;;;;16.13;14.38;;;7.60;99.90;;;;;;4945274;28;20102;-69
2024/03/16 11:31:37;;;;;;;15.93;13.65;;;7.60;99.90;;;;;;4961511;28;20046;-70
2024/03/16 11:34:09;;;;;;;18.38;13.57;;;7.40;99.90;;;;;;4946404;28;20054;-71
2024/03/16 11:36:38;;;;;;;15.38;12.00;;;7.40;99.90;;;;;;4946004;28;20549;-69
2024/03/16 11:39:11;;;;;;;14.68;12.43;;;7.30;99.90;;;;;;4952610;28;20038;-70
2024/03/16 11:41:45;;;;;;;20.20;14.65;;;7.30;99.90;;;;;;4945723;28;20039;-69
2024/03/16 11:44:15;;;;;;;17.83;15.57;;;7.20;99.90;;;;;;4947270;28;20035;-68
2024/03/16 11:46:44;;;;;;;20.40;13.88;;;7.20;99.90;;;;;;4926435;28;20051;-71
2024/03/16 11:49:16;;;;;;;16.98;13.52;;;7.30;99.90;;;;;;4948609;28;20126;-69
2024/03/16 11:51:54;;;;;;;16.02;14.40;;;7.30;99.90;;;;;;4927265;28;20039;-71
2024/03/16 11:54:21;;;;;;;18.10;15.77;;;7.40;99.90;;;;;;4924628;28;20535;-69
2024/03/16 11:56:47;;;;;;;16.10;14.93;;;7.40;99.90;;;;;;4910029;28;20591;-71
2024/03/16 11:59:18;;;;;;;17.25;15.63;;;7.40;99.90;;;;;;4916100;28;20062;-70
2024/03/16 12:01:51;;;;;;;17.33;15.80;;;7.40;99.90;;;;;;4930408;28;20683;-70
2024/03/16 12:04:20;;;;;;;18.83;16.88;;;7.50;99.90;;;;;;4926491;28;20126;-70
2024/03/16 12:06:50;;;;;;;20.00;18.27;;;7.50;99.90;;;;;;4942238;28;20054;-71
2024/03/16 12:09:18;;;;;;;17.85;16.27;;;7.70;99.90;;;;;;4946093;28;20072;-70
2024/03/16 12:11:51;;;;;;;17.38;16.27;;;7.70;99.90;;;;;;4911044;28;20046;-69
2024/03/16 12:14:18;;;;;;;20.85;18.77;;;7.60;99.90;;;;;;4909491;28;20045;-69
2024/03/16 12:16:51;;;;;;;23.63;19.23;;;7.60;99.90;;;;;;4927623;28;20043;-70
2024/03/16 12:19:19;;;;;;;20.38;18.83;;;7.50;99.90;;;;;;4946188;28;20039;-69
2024/03/16 12:21:48;;;;;;;19.45;17.65;;;7.40;99.90;;;;;;4918159;28;20073;-70
2024/03/16 12:24:19;;;;;;;18.33;16.83;;;7.50;99.90;;;;;;4925383;28;20058;-70
2024/03/16 12:26:49;;;;;;;19.15;17.55;;;7.50;99.90;;;;;;4940802;28;20043;-69
2024/03/16 12:29:20;;;;;;;20.48;17.88;;;7.50;99.90;;;;;;4937374;28;20058;-70
2024/03/16 12:31:56;;;;;;;18.65;17.33;;;7.50;99.90;;;;;;4940388;28;20062;-70
2024/03/16 12:34:25;;;;;;;20.73;19.13;;;7.60;99.90;;;;;;4924361;28;20059;-67
2024/03/16 12:36:52;;;;;;;22.17;20.10;;;7.60;99.90;;;;;;4906306;28;20050;-70
2024/03/16 12:39:18;;;;;;;20.88;18.98;;;7.60;99.90;;;;;;4925708;28;20055;-70
2024/03/16 12:41:49;;;;;;;24.13;19.75;;;7.60;99.90;;;;;;4955199;28;20046;-69
2024/03/16 12:44:17;;;;;;;21.85;19.88;;;7.70;99.90;;;;;;4929619;28;20066;-69